sensor_id;sensor_type;location;lat;lon;timestamp;pressure;altitude;pressure_sealevel;temperature;humidity
26087;BME280;13851;43.434;28.338;2022-08-21T00:00:19;99218.03;;;26.25;100.00
26087;BME280;13851;43.434;28.338;2022-08-21T00:02:58;99235.50;;;26.41;100.00
26087;BME280;13851;43.434;28.338;2022-08-21T00:05:25;99199.28;;;26.21;100.00
26087;BME280;13851;43.434;28.338;2022-08-21T00:07:51;99255.38;;;26.50;100.00
26087;BME280;13851;43.434;28.338;2022-08-21T00:10:17;99251.97;;;26.53;100.00
26087;BME280;13851;43.434;28.338;2022-08-21T00:12:43;99209.53;;;26.30;100.00
26087;BME280;13851;43.434;28.338;2022-08-21T00:15:15;99251.81;;;26.63;100.00
26087;BME280;13851;43.434;28.338;2022-08-21T00:17:41;99227.94;;;26.41;100.00
26087;BME280;13851;43.434;28.338;2022-08-21T00:20:09;99234.03;;;26.49;100.00
26087;BME280;13851;43.434;28.338;2022-08-21T00:22:35;99042.97;;;25.35;100.00
26087;BME280;13851;43.434;28.338;2022-08-21T00:25:02;99243.97;;;26.60;100.00
26087;BME280;13851;43.434;28.338;2022-08-21T00:27:28;99247.34;;;26.62;100.00
26087;BME280;13851;43.434;28.338;2022-08-21T00:29:54;99238.97;;;26.57;100.00
26087;BME280;13851;43.434;28.338;2022-08-21T00:32:22;99242.31;;;26.59;100.00
26087;BME280;13851;43.434;28.338;2022-08-21T00:34:49;99243.97;;;26.60;100.00
26087;BME280;13851;43.434;28.338;2022-08-21T00:37:17;99248.25;;;26.57;100.00
26087;BME280;13851;43.434;28.338;2022-08-21T00:39:42;99240.66;;;26.58;100.00
26087;BME280;13851;43.434;28.338;2022-08-21T00:42:09;99245.44;;;26.57;100.00
26087;BME280;13851;43.434;28.338;2022-08-21T00:44:44;99261.53;;;26.52;100.00
26087;BME280;13851;43.434;28.338;2022-08-21T00:47:11;99244.06;;;26.55;100.00
26087;BME280;13851;43.434;28.338;2022-08-21T00:49:38;99208.41;;;26.31;100.00
26087;BME280;13851;43.434;28.338;2022-08-21T00:52:08;99270.47;;;26.54;100.00
26087;BME280;13851;43.434;28.338;2022-08-21T00:54:35;99246.94;;;26.50;100.00
26087;BME280;13851;43.434;28.338;2022-08-21T00:57:09;99043.56;;;25.32;100.00
26087;BME280;13851;43.434;28.338;2022-08-21T00:59:37;99218.97;;;26.39;100.00
26087;BME280;13851;43.434;28.338;2022-08-21T01:02:09;99242.97;;;26.51;100.00
26087;BME280;13851;43.434;28.338;2022-08-21T01:04:35;99183.94;;;26.13;100.00
26087;BME280;13851;43.434;28.338;2022-08-21T01:07:01;99010.41;;;25.15;100.00
26087;BME280;13851;43.434;28.338;2022-08-21T01:09:27;99244.06;;;26.55;100.00
26087;BME280;13851;43.434;28.338;2022-08-21T01:11:53;99213.00;;;26.46;100.00
26087;BME280;13851;43.434;28.338;2022-08-21T01:14:19;99207.19;;;26.37;100.00
26087;BME280;13851;43.434;28.338;2022-08-21T01:16:48;99214.88;;;26.51;100.00
26087;BME280;13851;43.434;28.338;2022-08-21T01:19:21;99003.84;;;25.25;100.00
26087;BME280;13851;43.434;28.338;2022-08-21T01:21:47;99218.84;;;26.50;100.00
26087;BME280;13851;43.434;28.338;2022-08-21T01:24:13;99225.53;;;26.54;100.00
26087;BME280;13851;43.434;28.338;2022-08-21T01:26:40;99222.22;;;26.52;100.00
26087;BME280;13851;43.434;28.338;2022-08-21T01:31:39;99238.50;;;26.50;100.00
26087;BME280;13851;43.434;28.338;2022-08-21T01:34:11;99220.38;;;26.42;100.00
26087;BME280;13851;43.434;28.338;2022-08-21T01:36:37;99171.56;;;26.14;100.00
26087;BME280;13851;43.434;28.338;2022-08-21T01:39:06;99209.38;;;26.40;100.00
26087;BME280;13851;43.434;28.338;2022-08-21T01:41:31;99210.00;;;26.37;100.00
26087;BME280;13851;43.434;28.338;2022-08-21T01:43:57;99206.78;;;26.25;100.00
26087;BME280;13851;43.434;28.338;2022-08-21T01:46:25;99225.53;;;26.30;100.00
26087;BME280;13851;43.434;28.338;2022-08-21T01:48:53;99201.88;;;26.17;100.00
26087;BME280;13851;43.434;28.338;2022-08-21T01:51:19;99196.53;;;26.15;100.00
26087;BME280;13851;43.434;28.338;2022-08-21T01:53:51;99220.75;;;26.30;100.00
26087;BME280;13851;43.434;28.338;2022-08-21T01:56:20;99218.03;;;26.25;100.00
26087;BME280;13851;43.434;28.338;2022-08-21T01:58:46;99170.50;;;25.91;100.00
26087;BME280;13851;43.434;28.338;2022-08-21T02:01:13;99220.75;;;26.11;100.00
26087;BME280;13851;43.434;28.338;2022-08-21T02:03:40;99226.06;;;26.13;100.00
26087;BME280;13851;43.434;28.338;2022-08-21T02:06:11;99210.19;;;26.03;100.00
26087;BME280;13851;43.434;28.338;2022-08-21T02:08:37;99106.25;;;25.41;100.00
26087;BME280;13851;43.434;28.338;2022-08-21T02:11:06;99240.69;;;26.10;100.00
26087;BME280;13851;43.434;28.338;2022-08-21T02:13:32;99217.69;;;26.08;100.00
26087;BME280;13851;43.434;28.338;2022-08-21T02:15:58;99218.00;;;26.06;100.00
26087;BME280;13851;43.434;28.338;2022-08-21T02:18:23;98862.75;;;23.91;100.00
26087;BME280;13851;43.434;28.338;2022-08-21T02:20:49;99220.25;;;26.04;100.00
26087;BME280;13851;43.434;28.338;2022-08-21T02:23:16;99230.72;;;25.99;100.00
26087;BME280;13851;43.434;28.338;2022-08-21T02:25:42;99140.69;;;25.47;100.00
26087;BME280;13851;43.434;28.338;2022-08-21T02:28:10;99222.59;;;25.97;100.00
26087;BME280;13851;43.434;28.338;2022-08-21T02:30:40;99222.34;;;25.93;100.00
26087;BME280;13851;43.434;28.338;2022-08-21T02:33:07;99230.50;;;25.95;100.00
26087;BME280;13851;43.434;28.338;2022-08-21T02:35:35;99226.69;;;25.86;100.00
26087;BME280;13851;43.434;28.338;2022-08-21T02:38:04;99208.00;;;25.71;100.00
26087;BME280;13851;43.434;28.338;2022-08-21T02:40:32;99228.66;;;25.85;100.00
26087;BME280;13851;43.434;28.338;2022-08-21T02:43:00;99207.16;;;25.76;100.00
26087;BME280;13851;43.434;28.338;2022-08-21T02:45:26;99215.81;;;25.74;100.00
26087;BME280;13851;43.434;28.338;2022-08-21T02:47:56;99225.59;;;25.82;100.00
26087;BME280;13851;43.434;28.338;2022-08-21T02:50:25;99219.97;;;25.82;100.00
26087;BME280;13851;43.434;28.338;2022-08-21T02:52:54;99224.16;;;25.84;100.00
26087;BME280;13851;43.434;28.338;2022-08-21T02:55:25;99214.13;;;25.78;100.00
26087;BME280;13851;43.434;28.338;2022-08-21T02:57:53;99219.69;;;25.83;100.00
26087;BME280;13851;43.434;28.338;2022-08-21T03:00:20;99221.97;;;25.81;100.00
26087;BME280;13851;43.434;28.338;2022-08-21T03:02:57;99227.88;;;25.80;100.00
26087;BME280;13851;43.434;28.338;2022-08-21T03:05:24;99209.78;;;25.62;100.00
26087;BME280;13851;43.434;28.338;2022-08-21T03:07:51;99216.44;;;25.71;100.00
26087;BME280;13851;43.434;28.338;2022-08-21T03:10:18;99227.09;;;25.69;100.00
26087;BME280;13851;43.434;28.338;2022-08-21T03:12:45;99232.13;;;25.72;100.00
26087;BME280;13851;43.434;28.338;2022-08-21T03:15:14;99240.22;;;25.74;100.00
26087;BME280;13851;43.434;28.338;2022-08-21T03:17:40;99233.56;;;25.70;100.00
26087;BME280;13851;43.434;28.338;2022-08-21T03:20:07;99222.94;;;25.66;100.00
26087;BME280;13851;43.434;28.338;2022-08-21T03:22:33;99238.56;;;25.73;100.00
26087;BME280;13851;43.434;28.338;2022-08-21T03:24:59;99197.91;;;25.46;100.00
26087;BME280;13851;43.434;28.338;2022-08-21T03:27:27;99248.63;;;25.50;100.00
26087;BME280;13851;43.434;28.338;2022-08-21T03:29:54;99229.09;;;25.39;100.00
26087;BME280;13851;43.434;28.338;2022-08-21T03:32:21;99246.66;;;25.79;100.00
26087;BME280;13851;43.434;28.338;2022-08-21T03:34:47;99216.47;;;25.66;100.00
26087;BME280;13851;43.434;28.338;2022-08-21T03:37:14;99232.88;;;25.83;100.00
26087;BME280;13851;43.434;28.338;2022-08-21T03:39:44;99197.50;;;25.58;100.00
26087;BME280;13851;43.434;28.338;2022-08-21T03:42:11;99244.66;;;25.85;100.00
26087;BME280;13851;43.434;28.338;2022-08-21T03:44:37;99060.97;;;24.76;100.00
26087;BME280;13851;43.434;28.338;2022-08-21T03:47:11;99233.66;;;25.88;100.00
26087;BME280;13851;43.434;28.338;2022-08-21T03:49:37;99249.34;;;25.89;100.00
26087;BME280;13851;43.434;28.338;2022-08-21T03:52:04;99226.94;;;25.84;100.00
26087;BME280;13851;43.434;28.338;2022-08-21T03:54:37;99237.53;;;25.92;100.00
26087;BME280;13851;43.434;28.338;2022-08-21T03:57:05;99243.16;;;25.92;100.00
26087;BME280;13851;43.434;28.338;2022-08-21T03:59:31;99243.16;;;25.92;100.00
26087;BME280;13851;43.434;28.338;2022-08-21T04:01:59;99229.53;;;25.81;100.00
26087;BME280;13851;43.434;28.338;2022-08-21T04:04:28;99246.53;;;25.89;100.00
26087;BME280;13851;43.434;28.338;2022-08-21T04:06:56;99244.03;;;25.88;100.00
26087;BME280;13851;43.434;28.338;2022-08-21T04:09:23;99215.28;;;25.72;100.00
26087;BME280;13851;43.434;28.338;2022-08-21T04:11:49;99249.22;;;26.00;100.00
26087;BME280;13851;43.434;28.338;2022-08-21T04:14:16;99241.41;;;25.97;100.00
26087;BME280;13851;43.434;28.338;2022-08-21T04:16:42;99250.56;;;26.07;100.00
26087;BME280;13851;43.434;28.338;2022-08-21T04:19:10;99232.38;;;26.00;100.00
26087;BME280;13851;43.434;28.338;2022-08-21T04:21:37;99243.81;;;26.08;100.00
26087;BME280;13851;43.434;28.338;2022-08-21T04:24:04;99245.97;;;26.16;100.00
26087;BME280;13851;43.434;28.338;2022-08-21T04:26:30;99029.25;;;24.81;100.00
26087;BME280;13851;43.434;28.338;2022-08-21T04:28:57;99244.19;;;26.21;100.00
26087;BME280;13851;43.434;28.338;2022-08-21T04:31:26;99220.19;;;26.09;100.00
26087;BME280;13851;43.434;28.338;2022-08-21T04:33:57;99256.09;;;26.36;100.00
26087;BME280;13851;43.434;28.338;2022-08-21T04:36:26;99233.59;;;26.17;100.00
26087;BME280;13851;43.434;28.338;2022-08-21T04:38:58;99248.00;;;26.30;100.00
26087;BME280;13851;43.434;28.338;2022-08-21T04:41:27;99255.75;;;26.43;100.00
26087;BME280;13851;43.434;28.338;2022-08-21T04:43:55;99244.22;;;26.39;100.00
26087;BME280;13851;43.434;28.338;2022-08-21T04:46:22;99230.56;;;26.33;100.00
26087;BME280;13851;43.434;28.338;2022-08-21T04:48:47;99195.28;;;26.27;100.00
26087;BME280;13851;43.434;28.338;2022-08-21T04:51:22;99173.03;;;26.30;100.00
26087;BME280;13851;43.434;28.338;2022-08-21T04:54:05;99242.53;;;26.81;100.00
26087;BME280;13851;43.434;28.338;2022-08-21T04:56:58;99239.03;;;26.89;100.00
26087;BME280;13851;43.434;28.338;2022-08-21T04:59:27;99245.56;;;26.66;100.00
26087;BME280;13851;43.434;28.338;2022-08-21T05:01:57;99239.66;;;26.49;100.00
26087;BME280;13851;43.434;28.338;2022-08-21T05:04:30;99025.19;;;25.21;100.00
26087;BME280;13851;43.434;28.338;2022-08-21T05:07:01;99192.00;;;26.19;100.00
26087;BME280;13851;43.434;28.338;2022-08-21T05:09:33;99242.31;;;26.59;100.00
26087;BME280;13851;43.434;28.338;2022-08-21T05:12:01;99229.63;;;26.42;100.00
26087;BME280;13851;43.434;28.338;2022-08-21T05:14:27;99243.38;;;26.82;100.00
26087;BME280;13851;43.434;28.338;2022-08-21T05:16:57;99187.94;;;26.68;100.00
26087;BME280;13851;43.434;28.338;2022-08-21T05:19:24;99221.59;;;26.92;100.00
26087;BME280;13851;43.434;28.338;2022-08-21T05:21:51;99003.75;;;25.73;100.00
26087;BME280;13851;43.434;28.338;2022-08-21T05:24:17;99235.53;;;27.16;100.00
26087;BME280;13851;43.434;28.338;2022-08-21T05:26:43;99236.72;;;27.29;100.00
26087;BME280;13851;43.434;28.338;2022-08-21T05:29:10;99240.06;;;27.31;100.00
26087;BME280;13851;43.434;28.338;2022-08-21T05:31:36;99234.69;;;27.48;100.00
26087;BME280;13851;43.434;28.338;2022-08-21T05:34:08;99238.91;;;27.65;100.00
26087;BME280;13851;43.434;28.338;2022-08-21T05:36:33;99230.50;;;27.79;100.00
26087;BME280;13851;43.434;28.338;2022-08-21T05:38:59;99233.31;;;27.92;100.00
26087;BME280;13851;43.434;28.338;2022-08-21T05:41:25;99259.72;;;28.10;100.00
26087;BME280;13851;43.434;28.338;2022-08-21T05:43:50;99075.06;;;27.27;100.00
26087;BME280;13851;43.434;28.338;2022-08-21T05:46:16;99228.09;;;28.27;100.00
26087;BME280;13851;43.434;28.338;2022-08-21T05:48:42;99247.72;;;28.46;100.00
26087;BME280;13851;43.434;28.338;2022-08-21T05:51:10;99223.31;;;28.41;100.00
26087;BME280;13851;43.434;28.338;2022-08-21T05:53:36;99229.34;;;28.48;100.00
26087;BME280;13851;43.434;28.338;2022-08-21T05:56:02;99214.22;;;28.44;100.00
26087;BME280;13851;43.434;28.338;2022-08-21T05:58:30;99014.97;;;27.36;100.00
26087;BME280;13851;43.434;28.338;2022-08-21T06:00:57;99203.25;;;28.57;100.00
26087;BME280;13851;43.434;28.338;2022-08-21T06:03:26;98999.63;;;27.42;100.00
26087;BME280;13851;43.434;28.338;2022-08-21T06:05:54;99213.25;;;28.85;100.00
26087;BME280;13851;43.434;28.338;2022-08-21T06:08:21;99207.06;;;28.97;100.00
26087;BME280;13851;43.434;28.338;2022-08-21T06:10:48;99160.19;;;28.42;100.00
26087;BME280;13851;43.434;28.338;2022-08-21T06:13:21;99217.03;;;28.94;100.00
26087;BME280;13851;43.434;28.338;2022-08-21T06:15:47;99173.91;;;28.80;100.00
26087;BME280;13851;43.434;28.338;2022-08-21T06:18:14;99058.91;;;28.10;100.00
26087;BME280;13851;43.434;28.338;2022-08-21T06:20:40;99259.31;;;29.17;100.00
26087;BME280;13851;43.434;28.338;2022-08-21T06:23:08;99199.59;;;29.15;100.00
26087;BME280;13851;43.434;28.338;2022-08-21T06:25:34;99185.22;;;29.25;100.00
26087;BME280;13851;43.434;28.338;2022-08-21T06:28:06;99221.22;;;29.50;100.00
26087;BME280;13851;43.434;28.338;2022-08-21T06:30:33;99223.03;;;29.69;100.00
26087;BME280;13851;43.434;28.338;2022-08-21T06:32:59;99235.03;;;29.83;100.00
26087;BME280;13851;43.434;28.338;2022-08-21T06:35:25;99221.72;;;29.75;100.00
26087;BME280;13851;43.434;28.338;2022-08-21T06:37:56;99187.75;;;29.58;100.00
26087;BME280;13851;43.434;28.338;2022-08-21T06:40:22;99219.28;;;29.91;100.00
26087;BME280;13851;43.434;28.338;2022-08-21T06:42:48;99226.16;;;30.07;100.00
26087;BME280;13851;43.434;28.338;2022-08-21T06:45:14;99218.25;;;30.18;100.00
26087;BME280;13851;43.434;28.338;2022-08-21T06:47:39;99192.84;;;30.26;100.00
26087;BME280;13851;43.434;28.338;2022-08-21T06:50:06;99223.81;;;30.49;100.00
26087;BME280;13851;43.434;28.338;2022-08-21T06:52:36;99240.09;;;30.43;100.00
26087;BME280;13851;43.434;28.338;2022-08-21T06:55:04;99195.09;;;30.07;100.00
26087;BME280;13851;43.434;28.338;2022-08-21T06:57:30;99218.91;;;30.23;100.00
26087;BME280;13851;43.434;28.338;2022-08-21T06:59:56;99227.78;;;30.31;100.00
26087;BME280;13851;43.434;28.338;2022-08-21T07:02:23;99225.25;;;30.29;100.00
26087;BME280;13851;43.434;28.338;2022-08-21T07:04:49;99192.59;;;30.06;100.00
26087;BME280;13851;43.434;28.338;2022-08-21T07:07:14;99214.97;;;30.33;100.00
26087;BME280;13851;43.434;28.338;2022-08-21T07:09:42;99217.81;;;30.42;100.00
26087;BME280;13851;43.434;28.338;2022-08-21T07:12:08;99187.34;;;30.30;100.00
26087;BME280;13851;43.434;28.338;2022-08-21T07:14:35;99228.13;;;30.55;100.00
26087;BME280;13851;43.434;28.338;2022-08-21T07:17:01;99223.69;;;30.80;100.00
26087;BME280;13851;43.434;28.338;2022-08-21T07:19:27;99200.91;;;30.85;100.00
26087;BME280;13851;43.434;28.338;2022-08-21T07:21:58;99200.59;;;30.87;100.00
26087;BME280;13851;43.434;28.338;2022-08-21T07:24:25;99182.94;;;30.90;100.00
26087;BME280;13851;43.434;28.338;2022-08-21T07:26:54;99197.75;;;31.04;100.00
26087;BME280;13851;43.434;28.338;2022-08-21T07:29:20;99159.00;;;30.87;100.00
26087;BME280;13851;43.434;28.338;2022-08-21T07:31:46;99198.53;;;31.22;100.00
26087;BME280;13851;43.434;28.338;2022-08-21T07:34:12;99194.06;;;31.38;100.00
26087;BME280;13851;43.434;28.338;2022-08-21T07:36:40;99185.69;;;31.50;100.00
26087;BME280;13851;43.434;28.338;2022-08-21T07:39:06;99197.28;;;31.75;100.00
26087;BME280;13851;43.434;28.338;2022-08-21T07:41:31;99197.63;;;31.65;100.00
26087;BME280;13851;43.434;28.338;2022-08-21T07:44:03;99022.59;;;30.64;100.00
26087;BME280;13851;43.434;28.338;2022-08-21T07:46:29;99183.81;;;31.63;100.00
26087;BME280;13851;43.434;28.338;2022-08-21T07:48:54;99155.47;;;31.08;100.00
26087;BME280;13851;43.434;28.338;2022-08-21T07:51:23;99168.28;;;31.14;100.00
26087;BME280;13851;43.434;28.338;2022-08-21T07:53:52;99190.88;;;31.40;100.00
26087;BME280;13851;43.434;28.338;2022-08-21T07:56:19;99161.59;;;31.36;100.00
26087;BME280;13851;43.434;28.338;2022-08-21T07:58:45;99178.22;;;31.37;100.00
26087;BME280;13851;43.434;28.338;2022-08-21T08:01:13;99186.69;;;31.46;100.00
26087;BME280;13851;43.434;28.338;2022-08-21T08:03:39;99185.84;;;31.54;100.00
26087;BME280;13851;43.434;28.338;2022-08-21T08:06:06;99181.50;;;31.48;100.00
26087;BME280;13851;43.434;28.338;2022-08-21T08:08:34;99185.56;;;31.38;100.00
26087;BME280;13851;43.434;28.338;2022-08-21T08:11:00;99155.66;;;30.68;100.00
26087;BME280;13851;43.434;28.338;2022-08-21T08:13:26;99155.78;;;30.54;100.00
26087;BME280;13851;43.434;28.338;2022-08-21T08:15:52;99180.25;;;30.67;100.00
26087;BME280;13851;43.434;28.338;2022-08-21T08:18:18;99184.25;;;30.58;100.00
26087;BME280;13851;43.434;28.338;2022-08-21T08:20:43;99175.41;;;30.50;100.00
26087;BME280;13851;43.434;28.338;2022-08-21T08:23:11;99173.09;;;30.52;100.00
26087;BME280;13851;43.434;28.338;2022-08-21T08:25:37;99161.28;;;30.59;100.00
26087;BME280;13851;43.434;28.338;2022-08-21T08:28:04;99154.47;;;30.69;100.00
26087;BME280;13851;43.434;28.338;2022-08-21T08:30:30;99167.31;;;30.84;100.00
26087;BME280;13851;43.434;28.338;2022-08-21T08:32:56;99165.44;;;30.96;100.00
26087;BME280;13851;43.434;28.338;2022-08-21T08:35:23;99141.69;;;30.80;100.00
26087;BME280;13851;43.434;28.338;2022-08-21T08:37:49;99121.22;;;30.74;100.00
26087;BME280;13851;43.434;28.338;2022-08-21T08:40:26;99152.69;;;30.82;100.00
26087;BME280;13851;43.434;28.338;2022-08-21T08:42:54;99159.50;;;30.72;100.00
26087;BME280;13851;43.434;28.338;2022-08-21T08:45:21;99161.34;;;30.76;100.00
26087;BME280;13851;43.434;28.338;2022-08-21T08:47:53;99147.13;;;30.50;100.00
26087;BME280;13851;43.434;28.338;2022-08-21T08:50:44;99155.16;;;30.74;100.00
26087;BME280;13851;43.434;28.338;2022-08-21T08:53:37;99149.16;;;30.85;100.00
26087;BME280;13851;43.434;28.338;2022-08-21T08:56:07;99159.44;;;31.06;100.00
26087;BME280;13851;43.434;28.338;2022-08-21T08:58:40;99110.31;;;31.20;100.00
26087;BME280;13851;43.434;28.338;2022-08-21T09:01:15;99124.66;;;31.70;100.00
26087;BME280;13851;43.434;28.338;2022-08-21T09:03:42;99107.69;;;32.00;100.00
26087;BME280;13851;43.434;28.338;2022-08-21T09:27:42;99114.16;;;32.72;100.00
26087;BME280;13851;43.434;28.338;2022-08-21T09:30:08;99107.47;;;32.55;100.00
26087;BME280;13851;43.434;28.338;2022-08-21T09:32:36;98918.03;;;31.32;100.00
26087;BME280;13851;43.434;28.338;2022-08-21T09:35:13;99153.06;;;32.50;100.00
26087;BME280;13851;43.434;28.338;2022-08-21T09:37:56;99103.59;;;32.39;100.00
26087;BME280;13851;43.434;28.338;2022-08-21T09:45:39;99093.00;;;31.68;100.00
26087;BME280;13851;43.434;28.338;2022-08-21T09:48:21;99101.38;;;31.65;100.00
26087;BME280;13851;43.434;28.338;2022-08-21T09:50:48;99113.06;;;31.54;100.00
26087;BME280;13851;43.434;28.338;2022-08-21T09:53:21;98888.88;;;30.17;100.00
26087;BME280;13851;43.434;28.338;2022-08-21T09:55:54;99102.47;;;31.72;100.00
26087;BME280;13851;43.434;28.338;2022-08-21T09:58:41;99097.59;;;31.90;100.00
26087;BME280;13851;43.434;28.338;2022-08-21T10:01:28;99110.56;;;32.21;100.00
26087;BME280;13851;43.434;28.338;2022-08-21T10:04:10;99101.19;;;31.99;100.00
26087;BME280;13851;43.434;28.338;2022-08-21T10:06:37;99102.75;;;31.88;100.00
26087;BME280;13851;43.434;28.338;2022-08-21T10:09:18;99098.03;;;31.63;100.00
26087;BME280;13851;43.434;28.338;2022-08-21T10:11:53;99095.53;;;31.61;100.00
26087;BME280;13851;43.434;28.338;2022-08-21T10:17:22;99100.31;;;31.31;100.00
26087;BME280;13851;43.434;28.338;2022-08-21T10:20:13;99127.50;;;31.15;100.00
26087;BME280;13851;43.434;28.338;2022-08-21T10:25:14;99096.72;;;31.13;100.00
26087;BME280;13851;43.434;28.338;2022-08-21T10:30:36;98880.28;;;29.70;100.00
26087;BME280;13851;43.434;28.338;2022-08-21T10:33:28;99092.91;;;31.00;100.00
26087;BME280;13851;43.434;28.338;2022-08-21T10:36:32;99090.25;;;30.95;100.00
26087;BME280;13851;43.434;28.338;2022-08-21T10:48:00;99075.63;;;30.07;100.00
26087;BME280;13851;43.434;28.338;2022-08-21T10:50:46;99078.44;;;29.98;100.00
26087;BME280;13851;43.434;28.338;2022-08-21T10:56:21;99083.63;;;30.22;100.00
26087;BME280;13851;43.434;28.338;2022-08-21T10:59:28;98948.78;;;29.44;100.00
26087;BME280;13851;43.434;28.338;2022-08-21T11:05:12;99078.28;;;30.12;100.00
26087;BME280;13851;43.434;28.338;2022-08-21T11:08:05;99080.78;;;30.13;100.00
26087;BME280;13851;43.434;28.338;2022-08-21T11:10:48;98902.72;;;29.00;100.00
26087;BME280;13851;43.434;28.338;2022-08-21T11:18:34;99074.81;;;30.67;100.00
26087;BME280;13851;43.434;28.338;2022-08-21T11:23:54;99048.94;;;31.12;100.00
26087;BME280;13851;43.434;28.338;2022-08-21T11:37:43;98954.44;;;30.48;100.00
26087;BME280;13851;43.434;28.338;2022-08-21T11:51:57;99058.47;;;31.45;100.00
26087;BME280;13851;43.434;28.338;2022-08-21T11:57:06;98816.00;;;29.67;100.00
26087;BME280;13851;43.434;28.338;2022-08-21T12:02:28;99030.09;;;31.33;100.00
26087;BME280;13851;43.434;28.338;2022-08-21T12:04:58;98992.78;;;30.93;100.00
26087;BME280;13851;43.434;28.338;2022-08-21T12:07:35;99044.00;;;30.91;100.00
26087;BME280;13851;43.434;28.338;2022-08-21T12:10:05;99041.06;;;30.79;100.00
26087;BME280;13851;43.434;28.338;2022-08-21T12:12:33;99027.41;;;30.81;100.00
26087;BME280;13851;43.434;28.338;2022-08-21T12:17:59;98809.06;;;29.64;100.00
26087;BME280;13851;43.434;28.338;2022-08-21T12:25:40;98803.38;;;29.04;100.00
26087;BME280;13851;43.434;28.338;2022-08-21T12:28:10;99062.38;;;30.33;100.00
26087;BME280;13851;43.434;28.338;2022-08-21T12:30:43;98792.91;;;28.95;100.00
26087;BME280;13851;43.434;28.338;2022-08-21T12:35:44;99021.63;;;29.99;100.00
26087;BME280;13851;43.434;28.338;2022-08-21T12:38:32;99015.13;;;30.08;100.00
26087;BME280;13851;43.434;28.338;2022-08-21T12:43:30;98960.47;;;29.12;100.00
26087;BME280;13851;43.434;28.338;2022-08-21T12:45:58;98623.28;;;27.22;100.00
26087;BME280;13851;43.434;28.338;2022-08-21T12:48:38;99035.56;;;30.04;100.00
26087;BME280;13851;43.434;28.338;2022-08-21T12:51:17;99029.94;;;30.39;100.00
26087;BME280;13851;43.434;28.338;2022-08-21T12:53:53;99026.13;;;30.35;100.00
26087;BME280;13851;43.434;28.338;2022-08-21T12:56:22;99008.34;;;30.00;100.00
26087;BME280;13851;43.434;28.338;2022-08-21T12:58:56;98811.63;;;28.34;100.00
26087;BME280;13851;43.434;28.338;2022-08-21T13:01:32;98807.91;;;28.65;100.00
26087;BME280;13851;43.434;28.338;2022-08-21T13:04:23;99034.41;;;30.06;100.00
26087;BME280;13851;43.434;28.338;2022-08-21T13:06:53;99044.25;;;30.25;100.00
26087;BME280;13851;43.434;28.338;2022-08-21T13:09:23;99036.91;;;30.50;100.00
26087;BME280;13851;43.434;28.338;2022-08-21T13:11:51;99014.84;;;30.26;100.00
26087;BME280;13851;43.434;28.338;2022-08-21T13:16:47;99038.88;;;30.76;100.00
26087;BME280;13851;43.434;28.338;2022-08-21T13:19:17;99033.75;;;30.43;100.00
26087;BME280;13851;43.434;28.338;2022-08-21T13:21:44;98993.84;;;29.67;100.00
26087;BME280;13851;43.434;28.338;2022-08-21T13:24:17;99037.38;;;29.74;100.00
26087;BME280;13851;43.434;28.338;2022-08-21T13:26:45;99004.56;;;29.39;100.00
26087;BME280;13851;43.434;28.338;2022-08-21T13:29:14;99030.06;;;29.82;100.00
26087;BME280;13851;43.434;28.338;2022-08-21T13:31:46;98990.63;;;29.51;100.00
26087;BME280;13851;43.434;28.338;2022-08-21T13:34:14;99030.75;;;29.96;100.00
26087;BME280;13851;43.434;28.338;2022-08-21T13:36:42;99033.72;;;30.09;100.00
26087;BME280;13851;43.434;28.338;2022-08-21T13:39:11;99032.88;;;29.82;100.00
26087;BME280;13851;43.434;28.338;2022-08-21T13:41:40;99033.09;;;29.94;100.00
26087;BME280;13851;43.434;28.338;2022-08-21T13:44:18;99033.88;;;29.69;100.00
26087;BME280;13851;43.434;28.338;2022-08-21T13:46:45;98915.56;;;29.41;100.00
26087;BME280;13851;43.434;28.338;2022-08-21T13:49:15;99019.13;;;30.07;100.00
26087;BME280;13851;43.434;28.338;2022-08-21T13:51:42;98890.19;;;29.24;100.00
26087;BME280;13851;43.434;28.338;2022-08-21T13:54:23;99036.72;;;30.03;100.00
26087;BME280;13851;43.434;28.338;2022-08-21T13:56:48;99051.19;;;30.11;100.00
26087;BME280;13851;43.434;28.338;2022-08-21T13:59:25;99011.97;;;29.92;100.00
26087;BME280;13851;43.434;28.338;2022-08-21T14:01:57;99026.28;;;30.39;100.00
26087;BME280;13851;43.434;28.338;2022-08-21T14:04:31;99027.13;;;30.22;100.00
26087;BME280;13851;43.434;28.338;2022-08-21T14:06:58;99028.91;;;30.70;100.00
26087;BME280;13851;43.434;28.338;2022-08-21T14:09:42;99011.47;;;30.50;100.00
26087;BME280;13851;43.434;28.338;2022-08-21T14:12:43;98975.94;;;29.80;100.00
26087;BME280;13851;43.434;28.338;2022-08-21T14:15:17;98786.13;;;28.39;100.00
26087;BME280;13851;43.434;28.338;2022-08-21T14:17:44;99015.47;;;29.80;100.00
26087;BME280;13851;43.434;28.338;2022-08-21T14:20:26;99012.63;;;29.89;100.00
26087;BME280;13851;43.434;28.338;2022-08-21T14:22:52;99012.97;;;30.04;100.00
26087;BME280;13851;43.434;28.338;2022-08-21T14:27:51;98971.53;;;29.39;100.00
26087;BME280;13851;43.434;28.338;2022-08-21T14:30:41;99026.72;;;29.71;100.00
26087;BME280;13851;43.434;28.338;2022-08-21T14:33:10;99024.13;;;29.35;100.00
26087;BME280;13851;43.434;28.338;2022-08-21T14:35:36;99017.97;;;29.33;100.00
26087;BME280;13851;43.434;28.338;2022-08-21T14:38:01;98978.38;;;28.76;100.00
26087;BME280;13851;43.434;28.338;2022-08-21T14:40:27;99029.22;;;28.93;100.00